Time;durP1;ratioP1;P1;durP2;ratioP2;P2;SDS_P1;SDS_P2;PMS_P1;PMS_P2;Temp;Humidity;BMP_temperature;BMP_pressure;BME280_temperature;BME280_humidity;BME280_pressure;Samples;Min_cycle;Max_cycle;Signal;HPM_P1;HPM_P2
2023/07/30 00:01:39;;;;;;;4.97;1.10;;;;;;;24.85;45.50;100750.25;5050127;28;20040;-63
2023/07/30 00:04:05;;;;;;;5.45;1.27;;;;;;;24.85;45.69;100745.59;5034567;28;20409;-63
2023/07/30 00:06:30;;;;;;;1.45;1.05;;;;;;;24.84;45.47;100743.94;5033256;28;20037;-62
2023/07/30 00:08:56;;;;;;;2.08;0.85;;;;;;;24.84;45.36;100738.47;5033230;28;20113;-63
2023/07/30 00:11:22;;;;;;;5.80;1.27;;;;;;;24.85;45.61;100742.03;5049970;28;20454;-64
2023/07/30 00:13:47;;;;;;;4.43;1.00;;;;;;;24.81;45.56;100738.91;5034390;28;20029;-61
2023/07/30 00:16:12;;;;;;;2.22;0.77;;;;;;;24.83;45.77;100742.25;5033036;28;20026;-62
2023/07/30 00:18:38;;;;;;;2.80;1.40;;;;;;;24.85;45.97;100745.59;5033593;28;20400;-62
2023/07/30 00:21:04;;;;;;;5.32;1.42;;;;;;;24.85;45.49;100737.38;5033258;28;20041;-62
2023/07/30 00:23:29;;;;;;;2.35;1.00;;;;;;;24.86;45.74;100758.25;5032884;28;20110;-63
2023/07/30 00:25:54;;;;;;;1.77;0.77;;;;;;;24.89;45.91;100752.31;5032939;28;20386;-62
2023/07/30 00:28:20;;;;;;;4.25;0.88;;;;;;;24.92;45.82;100752.94;5034298;28;20040;-62
2023/07/30 00:30:46;;;;;;;4.03;1.45;;;;;;;24.95;45.68;100749.75;5016427;28;20029;-61
2023/07/30 00:33:11;;;;;;;4.22;0.80;;;;;;;24.97;45.34;100759.41;5049285;28;20033;-62
2023/07/30 00:35:37;;;;;;;4.60;1.38;;;;;;;24.97;46.10;100764.06;5049294;28;20064;-64
2023/07/30 00:38:02;;;;;;;2.30;0.90;;;;;;;24.99;45.50;100756.44;5032698;28;20029;-62
2023/07/30 00:40:28;;;;;;;8.73;1.40;;;;;;;25.02;45.53;100764.22;5032767;28;20037;-64
2023/07/30 00:42:53;;;;;;;4.82;1.23;;;;;;;25.03;45.88;100757.69;5049178;28;20060;-61
2023/07/30 00:45:18;;;;;;;1.65;1.30;;;;;;;25.04;45.58;100759.38;5035071;28;20140;-62
2023/07/30 00:47:44;;;;;;;8.05;1.33;;;;;;;25.00;45.87;100744.41;5052963;28;20037;-63
2023/07/30 00:50:10;;;;;;;4.38;1.10;;;;;;;25.01;45.33;100757.06;5035902;28;20074;-63
2023/07/30 00:52:36;;;;;;;1.75;1.08;;;;;;;24.99;45.40;100751.81;5047269;28;20026;-62
2023/07/30 00:55:03;;;;;;;2.22;1.30;;;;;;;25.02;45.84;100758.72;5015940;28;20434;-62
2023/07/30 00:57:28;;;;;;;2.45;1.42;;;;;;;25.00;45.78;100755.38;5032300;28;20116;-62
2023/07/30 00:59:54;;;;;;;7.97;1.65;;;;;;;25.02;46.04;100751.34;5031002;28;20073;-63
2023/07/30 01:02:21;;;;;;;2.10;1.10;;;;;;;25.02;45.84;100753.25;5032848;28;20405;-62
2023/07/30 01:04:46;;;;;;;2.47;1.13;;;;;;;25.03;46.10;100757.69;5033382;28;20036;-63
2023/07/30 01:07:12;;;;;;;7.60;1.45;;;;;;;25.03;45.58;100763.16;5016608;28;20033;-61
2023/07/30 01:09:38;;;;;;;4.57;1.33;;;;;;;25.03;45.40;100763.16;5049997;28;20029;-62
2023/07/30 01:12:05;;;;;;;3.85;1.20;;;;;;;25.01;45.99;100771.63;5032232;28;20044;-62
2023/07/30 01:14:31;;;;;;;7.05;1.30;;;;;;;25.03;45.90;100777.72;5015560;28;20029;-63
2023/07/30 01:16:58;;;;;;;7.95;1.92;;;;;;;25.02;45.53;100777.91;5031987;28;20029;-62
2023/07/30 01:19:23;;;;;;;2.47;1.23;;;;;;;25.01;45.76;100781.75;5031871;28;20038;-62
2023/07/30 01:21:50;;;;;;;1.90;1.13;;;;;;;24.97;45.86;100775.03;5032156;28;20041;-64
2023/07/30 01:24:15;;;;;;;3.67;1.10;;;;;;;24.96;45.82;100776.09;5031849;28;20037;-62
2023/07/30 01:26:46;;;;;;;4.50;1.75;;;;;;;24.93;45.79;100774.63;5031788;28;20041;-64
2023/07/30 01:29:38;;;;;;;2.55;0.93;;;;;;;24.93;45.65;100787.50;5015569;28;20037;-61
2023/07/30 01:32:07;;;;;;;9.07;1.60;;;;;;;24.88;45.64;100789.00;5031570;28;20078;-62
2023/07/30 01:34:35;;;;;;;4.43;1.30;;;;;;;24.87;45.33;100784.59;5031610;28;20029;-62
2023/07/30 01:37:00;;;;;;;3.03;1.13;;;;;;;24.82;45.73;100784.41;5031816;28;20026;-62
2023/07/30 01:39:26;;;;;;;9.02;1.17;;;;;;;24.80;45.85;100794.78;5031701;28;20048;-62
2023/07/30 01:41:54;;;;;;;8.30;1.13;;;;;;;24.76;45.75;100790.75;5015286;28;20036;-62
2023/07/30 01:44:20;;;;;;;5.25;1.17;;;;;;;24.75;46.03;100802.78;5033097;28;20053;-63
2023/07/30 01:46:46;;;;;;;8.30;1.35;;;;;;;24.74;45.94;100803.84;5032545;28;20041;-62
2023/07/30 01:49:11;;;;;;;4.47;1.38;;;;;;;24.69;46.07;100798.19;5031474;28;20030;-63
2023/07/30 01:51:37;;;;;;;3.45;1.50;;;;;;;24.70;45.76;100801.78;5031714;28;20064;-62
2023/07/30 01:54:02;;;;;;;3.40;1.05;;;;;;;24.61;45.98;100798.47;5035139;28;20396;-62
2023/07/30 01:56:27;;;;;;;3.80;1.35;;;;;;;24.61;45.97;100803.09;5051377;28;20055;-61
2023/07/30 01:58:53;;;;;;;5.43;1.40;;;;;;;24.59;46.13;100797.88;5051026;28;20036;-62
2023/07/30 02:01:18;;;;;;;3.53;1.20;;;;;;;24.57;46.08;100799.97;5051254;28;20489;-61
2023/07/30 02:03:43;;;;;;;4.65;1.25;;;;;;;24.51;45.68;100800.84;5052516;28;20036;-62
2023/07/30 02:06:10;;;;;;;3.85;1.27;;;;;;;24.50;45.98;100801.91;5052540;28;20057;-62
2023/07/30 02:08:36;;;;;;;3.05;1.52;;;;;;;24.48;45.91;100814.16;5048649;28;20029;-62
2023/07/30 02:11:01;;;;;;;5.95;1.23;;;;;;;24.42;46.36;100801.34;5014879;28;20083;-61
2023/07/30 02:13:27;;;;;;;8.63;2.28;;;;;;;24.35;45.89;100798.63;5032550;28;20042;-61
2023/07/30 02:15:52;;;;;;;7.82;2.40;;;;;;;24.34;46.08;100808.72;5032621;28;20037;-62
2023/07/30 02:18:17;;;;;;;6.50;1.98;;;;;;;24.28;45.83;100797.84;5031259;28;20037;-62
2023/07/30 02:20:43;;;;;;;5.97;1.30;;;;;;;24.30;46.21;100812.16;5032513;28;20072;-62
2023/07/30 02:23:08;;;;;;;7.57;1.75;;;;;;;24.27;46.32;100809.84;5031419;28;20037;-62
2023/07/30 02:25:34;;;;;;;5.28;1.27;;;;;;;24.28;46.31;100808.78;5031536;28;20048;-61
2023/07/30 02:28:00;;;;;;;8.85;1.92;;;;;;;24.25;46.08;100807.34;5032480;28;20037;-62
2023/07/30 02:30:27;;;;;;;9.63;1.70;;;;;;;24.23;46.44;100797.66;5032648;28;20048;-62
2023/07/30 02:32:53;;;;;;;8.82;2.13;;;;;;;24.20;46.44;100795.38;5031258;28;20037;-62
2023/07/30 02:35:18;;;;;;;5.53;2.17;;;;;;;24.21;46.69;100794.28;5032711;28;20025;-61
2023/07/30 02:37:45;;;;;;;6.70;1.83;;;;;;;24.19;46.01;100796.41;5032918;28;20029;-62
2023/07/30 02:40:11;;;;;;;10.23;1.50;;;;;;;24.18;46.39;100795.56;5033203;28;20030;-63
2023/07/30 02:42:36;;;;;;;12.65;1.80;;;;;;;24.18;46.76;100786.50;5015219;28;20034;-62
2023/07/30 02:45:02;;;;;;;3.78;1.15;;;;;;;24.18;46.43;100791.97;5032244;28;20403;-62
2023/07/30 02:47:27;;;;;;;4.28;1.45;;;;;;;24.19;46.64;100788.19;5032219;28;20120;-62
2023/07/30 02:49:53;;;;;;;5.05;2.88;;;;;;;24.22;46.12;100794.09;5031392;28;20034;-61
2023/07/30 02:52:18;;;;;;;9.20;1.95;;;;;;;24.22;46.04;100790.50;5031115;28;20026;-62
2023/07/30 02:54:44;;;;;;;5.20;1.45;;;;;;;24.15;46.29;100776.00;5032387;28;20039;-62
2023/07/30 02:57:10;;;;;;;3.10;1.60;;;;;;;24.19;46.51;100782.72;5031140;28;20036;-61
2023/07/30 02:59:35;;;;;;;9.35;1.90;;;;;;;24.20;46.49;100784.41;5018027;28;20038;-62
2023/07/30 03:02:02;;;;;;;6.25;1.42;;;;;;;24.18;46.75;100787.34;5002001;28;20047;-62
2023/07/30 03:04:27;;;;;;;5.25;1.42;;;;;;;24.20;46.07;100781.69;5035838;28;20038;-61
2023/07/30 03:06:52;;;;;;;6.90;1.77;;;;;;;24.19;46.55;100777.25;5018013;28;20515;-63
2023/07/30 03:09:18;;;;;;;6.68;2.03;;;;;;;24.18;46.51;100775.56;5035812;28;20036;-63
2023/07/30 03:11:43;;;;;;;4.07;1.70;;;;;;;24.19;46.53;100788.19;5035695;28;20029;-62
2023/07/30 03:14:08;;;;;;;7.00;1.25;;;;;;;24.21;46.56;100789.66;5034548;28;20528;-61
2023/07/30 03:16:34;;;;;;;3.75;1.50;;;;;;;24.20;47.00;100790.69;5017965;28;20052;-62
2023/07/30 03:18:59;;;;;;;3.50;1.20;;;;;;;24.21;46.58;100794.28;5035412;28;20500;-62
2023/07/30 03:21:24;;;;;;;4.97;2.03;;;;;;;24.18;46.91;100791.97;5034252;28;20052;-61
2023/07/30 03:23:50;;;;;;;4.05;1.23;;;;;;;24.13;46.96;100800.00;5035773;28;20034;-61
2023/07/30 03:26:15;;;;;;;7.18;1.63;;;;;;;24.09;47.24;100798.75;5035330;28;20049;-64
2023/07/30 03:28:41;;;;;;;3.22;1.05;;;;;;;24.08;47.28;100802.53;5034695;28;20049;-63
2023/07/30 03:31:06;;;;;;;6.60;1.63;;;;;;;24.03;47.15;100807.84;5018028;28;20440;-63
2023/07/30 03:33:31;;;;;;;3.50;1.05;;;;;;;23.99;47.56;100810.16;5035736;28;20052;-63
2023/07/30 03:35:57;;;;;;;6.25;1.38;;;;;;;23.93;47.42;100800.06;5036134;28;20490;-63
2023/07/30 03:38:22;;;;;;;6.93;1.30;;;;;;;23.93;47.77;100815.66;5028812;28;20059;-63
2023/07/30 03:40:47;;;;;;;6.68;1.80;;;;;;;23.89;47.46;100817.16;5018336;28;20036;-62
2023/07/30 03:43:13;;;;;;;5.15;1.08;;;;;;;23.88;47.47;100826.41;5034695;28;20041;-63
2023/07/30 03:45:38;;;;;;;4.90;1.35;;;;;;;23.85;48.04;100818.63;5034681;28;20409;-62
2023/07/30 03:48:04;;;;;;;2.85;1.25;;;;;;;23.77;47.81;100828.75;5035693;28;20050;-62
2023/07/30 03:50:29;;;;;;;2.85;1.33;;;;;;;23.76;47.73;100828.97;5035161;28;20034;-63
2023/07/30 03:52:55;;;;;;;1.33;0.70;;;;;;;23.71;47.68;100829.63;5036579;28;20045;-62
2023/07/30 03:55:20;;;;;;;5.50;0.70;;;;;;;23.64;48.06;100834.28;5017770;28;20163;-62
2023/07/30 03:57:46;;;;;;;3.10;0.88;;;;;;;23.62;48.26;100835.53;5055934;28;20037;-61
2023/07/30 04:00:11;;;;;;;2.08;0.70;;;;;;;23.59;47.64;100836.78;5041776;28;20041;-62
2023/07/30 04:02:37;;;;;;;5.55;1.00;;;;;;;23.58;48.11;100839.75;5059620;28;20475;-61
2023/07/30 04:05:02;;;;;;;4.35;1.05;;;;;;;23.60;47.57;100834.91;5058599;28;20028;-61
2023/07/30 04:07:28;;;;;;;11.57;0.82;;;;;;;23.55;47.56;100830.09;5058474;28;20095;-62
2023/07/30 04:09:53;;;;;;;2.58;0.80;;;;;;;23.57;48.02;100841.66;5054381;28;20120;-62
2023/07/30 04:12:21;;;;;;;5.88;0.82;;;;;;;23.57;47.66;100844.38;5054904;28;20441;-62
2023/07/30 04:14:46;;;;;;;6.25;0.82;;;;;;;23.54;47.28;100839.34;5053785;28;20120;-62
2023/07/30 04:17:12;;;;;;;2.03;1.02;;;;;;;23.54;47.45;100838.50;5053302;28;20029;-62
2023/07/30 04:19:37;;;;;;;5.88;0.75;;;;;;;23.50;47.16;100835.38;5054500;28;20036;-62
2023/07/30 04:22:02;;;;;;;4.88;1.42;;;;;;;23.51;46.78;100836.19;5053158;28;20492;-62
2023/07/30 04:24:28;;;;;;;7.65;0.93;;;;;;;23.47;47.26;100852.19;5052974;28;20033;-61
2023/07/30 04:26:53;;;;;;;5.40;0.60;;;;;;;23.43;47.42;100848.19;5053271;28;20090;-62
2023/07/30 04:29:18;;;;;;;4.03;0.60;;;;;;;23.41;47.17;100849.47;5054731;28;20413;-62
2023/07/30 04:31:44;;;;;;;2.08;0.70;;;;;;;23.41;47.81;100850.31;5036583;28;20032;-61
2023/07/30 04:34:09;;;;;;;3.10;0.80;;;;;;;23.42;47.68;100851.97;5054141;28;20082;-63
2023/07/30 04:36:34;;;;;;;5.45;1.15;;;;;;;23.43;47.49;100855.53;5052956;28;20037;-62
2023/07/30 04:39:00;;;;;;;2.20;0.55;;;;;;;23.41;47.67;100849.47;5054146;28;20025;-61
2023/07/30 04:41:26;;;;;;;6.22;0.60;;;;;;;23.42;47.98;100845.69;5052854;28;20041;-62
2023/07/30 04:43:51;;;;;;;5.03;0.52;;;;;;;23.40;47.58;100843.16;5053956;28;20041;-62
2023/07/30 04:46:16;;;;;;;3.13;0.75;;;;;;;23.40;47.15;100854.09;5035728;28;20095;-62
2023/07/30 04:48:42;;;;;;;4.20;0.93;;;;;;;23.39;46.92;100851.56;5052633;28;20499;-62
2023/07/30 04:51:07;;;;;;;2.75;0.80;;;;;;;23.38;47.09;100848.00;5053700;28;20118;-61
2023/07/30 04:53:32;;;;;;;3.00;0.68;;;;;;;23.40;46.94;100858.69;5053878;28;20036;-62
2023/07/30 04:55:58;;;;;;;2.42;0.55;;;;;;;23.38;47.68;100853.47;5052471;28;20075;-62
2023/07/30 04:58:24;;;;;;;3.47;0.63;;;;;;;23.40;46.85;100867.75;5052678;28;20536;-63
2023/07/30 05:00:49;;;;;;;4.80;0.60;;;;;;;23.37;47.10;100861.81;5053527;28;20107;-62
2023/07/30 05:03:15;;;;;;;1.73;0.47;;;;;;;23.38;47.70;100872.59;5053648;28;20091;-63
2023/07/30 05:05:41;;;;;;;4.82;1.83;;;;;;;23.39;47.26;100863.34;5051929;28;20029;-62
2023/07/30 05:08:07;;;;;;;3.50;0.77;;;;;;;23.40;47.83;100865.03;5026419;28;20036;-62
2023/07/30 05:10:32;;;;;;;3.55;0.90;;;;;;;23.41;47.39;100874.06;5053089;28;20413;-62
2023/07/30 05:12:57;;;;;;;2.85;0.68;;;;;;;23.45;47.12;100861.66;5035638;28;20036;-62
2023/07/30 05:15:23;;;;;;;5.53;0.90;;;;;;;23.43;47.61;100867.31;5052865;28;20189;-62
2023/07/30 05:17:48;;;;;;;1.70;0.85;;;;;;;23.41;47.28;100871.34;5051971;28;20087;-61
2023/07/30 05:20:14;;;;;;;2.97;1.35;;;;;;;23.39;47.45;100866.09;5053788;28;20040;-63
2023/07/30 05:22:39;;;;;;;3.42;0.60;;;;;;;23.41;48.11;100879.53;5052403;28;20033;-64
2023/07/30 05:25:05;;;;;;;9.95;0.93;;;;;;;23.39;47.75;100879.75;5051900;28;20056;-64
2023/07/30 05:27:32;;;;;;;6.63;1.40;;;;;;;23.41;47.85;100872.19;5053176;28;20029;-62
2023/07/30 05:29:57;;;;;;;1.60;0.70;;;;;;;23.41;47.20;100879.53;5035301;28;20033;-61
2023/07/30 05:32:23;;;;;;;8.70;1.20;;;;;;;23.41;47.72;100885.00;5053016;28;20163;-62
2023/07/30 05:34:48;;;;;;;3.70;0.40;;;;;;;23.39;48.18;100876.19;5051905;28;20087;-62
2023/07/30 05:37:14;;;;;;;1.98;0.73;;;;;;;23.41;47.74;100863.97;5052062;28;20579;-63
2023/07/30 05:39:39;;;;;;;0.57;0.32;;;;;;;23.43;47.66;100870.06;5053118;28;20036;-62
2023/07/30 05:42:04;;;;;;;4.22;0.75;;;;;;;23.48;47.24;100875.72;5051511;28;20106;-62
2023/07/30 05:44:30;;;;;;;4.22;1.15;;;;;;;23.51;47.48;100872.56;5052856;28;20030;-62
2023/07/30 05:46:55;;;;;;;3.13;0.40;;;;;;;23.54;47.49;100874.88;5035240;28;20396;-61
2023/07/30 05:49:20;;;;;;;4.13;0.65;;;;;;;23.60;47.83;100879.50;5035273;28;20037;-62
2023/07/30 05:51:46;;;;;;;2.72;0.80;;;;;;;23.61;47.81;100880.38;5051476;28;20404;-62
2023/07/30 05:54:12;;;;;;;5.50;0.63;;;;;;;23.65;47.93;100885.19;5050333;28;20134;-62
2023/07/30 05:56:38;;;;;;;2.00;0.80;;;;;;;23.69;47.47;100875.50;5051482;28;20036;-62
2023/07/30 05:59:03;;;;;;;3.65;0.75;;;;;;;23.74;47.57;100883.06;5052833;28;20033;-63
2023/07/30 06:01:28;;;;;;;2.78;0.65;;;;;;;23.78;48.06;100881.59;5052537;28;20041;-63
2023/07/30 06:03:54;;;;;;;2.65;0.90;;;;;;;23.86;47.45;100880.50;5052688;28;20041;-62
2023/07/30 06:06:26;;;;;;;2.30;1.10;;;;;;;23.90;47.93;100881.78;5050706;28;20505;-62
2023/07/30 06:08:54;;;;;;;4.18;0.70;;;;;;;23.97;47.59;100877.13;5051370;28;20033;-62
2023/07/30 06:11:20;;;;;;;3.40;1.02;;;;;;;24.11;47.93;100889.72;5051444;28;20487;-62
2023/07/30 06:13:45;;;;;;;2.85;0.80;;;;;;;24.19;47.43;100892.22;5051505;28;20053;-63
2023/07/30 06:16:10;;;;;;;4.28;0.82;;;;;;;24.25;47.46;100874.94;5051935;28;20027;-62
2023/07/30 06:18:36;;;;;;;4.05;0.93;;;;;;;24.31;47.47;100885.03;5051781;28;20043;-63
2023/07/30 06:21:02;;;;;;;2.90;0.60;;;;;;;24.35;47.47;100875.31;5051690;28;20086;-62
2023/07/30 06:23:28;;;;;;;4.47;1.08;;;;;;;24.42;46.97;100881.59;5052401;28;20060;-63
2023/07/30 06:25:53;;;;;;;3.83;0.65;;;;;;;24.49;47.21;100887.03;5051345;28;20122;-62
2023/07/30 06:28:19;;;;;;;5.78;1.30;;;;;;;24.53;47.21;100883.66;5051418;28;20518;-62
2023/07/30 06:30:45;;;;;;;7.13;0.80;;;;;;;24.57;47.13;100890.34;5051176;28;20120;-61
2023/07/30 06:33:11;;;;;;;3.70;0.80;;;;;;;24.60;46.95;100887.19;5052813;28;20558;-62
2023/07/30 06:35:36;;;;;;;3.15;0.95;;;;;;;24.64;47.23;100885.69;5055288;28;20037;-62
2023/07/30 06:38:01;;;;;;;4.38;1.30;;;;;;;24.69;47.07;100888.63;5054427;28;20068;-64
2023/07/30 06:40:28;;;;;;;6.15;1.40;;;;;;;24.73;47.38;100903.56;5056052;28;20056;-67
2023/07/30 06:42:54;;;;;;;3.13;1.20;;;;;;;24.76;47.21;100897.63;5056348;28;20033;-62
2023/07/30 06:45:20;;;;;;;4.45;1.13;;;;;;;24.79;47.16;100902.69;5056282;28;20036;-62
2023/07/30 06:47:45;;;;;;;5.95;0.82;;;;;;;24.86;47.15;100905.41;5037718;28;20029;-66
2023/07/30 06:50:10;;;;;;;6.43;1.08;;;;;;;24.90;47.46;100912.97;5054781;28;20033;-62
2023/07/30 06:52:36;;;;;;;4.45;1.52;;;;;;;24.96;47.79;100915.91;5037887;28;20384;-62
2023/07/30 06:55:03;;;;;;;11.40;1.45;;;;;;;24.98;47.18;100917.34;5056001;28;20056;-62
2023/07/30 06:57:31;;;;;;;6.20;1.23;;;;;;;24.97;47.18;100912.09;5055582;28;20041;-62
2023/07/30 06:59:58;;;;;;;8.50;1.65;;;;;;;24.96;47.10;100915.91;5055532;28;20045;-62
2023/07/30 07:02:23;;;;;;;6.45;1.85;;;;;;;24.95;47.00;100915.06;5054387;28;20116;-62
2023/07/30 07:04:49;;;;;;;9.15;0.93;;;;;;;24.96;47.14;100919.47;5054276;28;20622;-63
2023/07/30 07:07:15;;;;;;;5.53;1.10;;;;;;;25.00;47.18;100917.13;5054261;28;20050;-62
2023/07/30 07:09:40;;;;;;;10.50;1.17;;;;;;;24.97;47.04;100907.44;5054149;28;20037;-65
2023/07/30 07:12:06;;;;;;;3.20;1.15;;;;;;;24.98;47.42;100913.78;5037208;28;20377;-64
2023/07/30 07:14:31;;;;;;;9.95;1.23;;;;;;;25.04;47.34;100924.72;5037577;28;20045;-63
2023/07/30 07:16:57;;;;;;;17.55;1.98;;;;;;;25.16;46.96;100925.66;5053951;28;20583;-62
2023/07/30 07:19:22;;;;;;;9.13;1.48;;;;;;;25.22;47.02;100922.03;5037410;28;20040;-62
2023/07/30 07:21:48;;;;;;;5.45;0.82;;;;;;;25.33;46.78;100915.81;5053947;28;20120;-64
2023/07/30 07:24:13;;;;;;;6.18;1.70;;;;;;;25.38;46.99;100923.38;5054334;28;20386;-63
2023/07/30 07:26:38;;;;;;;7.97;1.40;;;;;;;25.40;47.17;100916.59;5053985;28;20539;-62
2023/07/30 07:29:04;;;;;;;11.27;1.35;;;;;;;25.45;47.15;100922.28;5037545;28;20033;-62
2023/07/30 07:31:31;;;;;;;4.78;1.13;;;;;;;25.49;46.48;100930.09;5037374;28;20119;-61
2023/07/30 07:33:56;;;;;;;5.70;1.02;;;;;;;25.51;46.28;100925.22;5053859;28;20564;-63
2023/07/30 07:36:22;;;;;;;5.32;1.75;;;;;;;25.57;46.44;100924.31;5053774;28;20129;-64
2023/07/30 07:38:47;;;;;;;12.02;1.95;;;;;;;25.60;46.90;100930.16;5053615;28;20056;-62
2023/07/30 07:41:16;;;;;;;7.63;1.70;;;;;;;25.58;46.66;100926.81;5053829;28;20037;-63
2023/07/30 07:43:42;;;;;;;7.47;1.45;;;;;;;25.63;46.92;100926.16;5053115;28;20526;-63
2023/07/30 07:46:13;;;;;;;7.20;1.55;;;;;;;25.75;46.60;100927.94;5052907;28;20037;-65
2023/07/30 07:48:39;;;;;;;7.88;1.65;;;;;;;25.88;46.00;100927.78;5053402;28;20033;-64
2023/07/30 07:51:05;;;;;;;3.92;1.33;;;;;;;25.92;46.29;100925.44;5036687;28;20519;-64
2023/07/30 07:53:31;;;;;;;11.02;1.58;;;;;;;26.17;45.33;100926.25;5053267;28;20132;-63
2023/07/30 07:55:56;;;;;;;9.82;2.13;;;;;;;26.35;45.92;100930.91;5053641;28;20025;-65
2023/07/30 07:58:22;;;;;;;8.30;1.65;;;;;;;26.77;45.27;100937.34;5053149;28;20404;-64
2023/07/30 08:00:47;;;;;;;11.77;2.00;;;;;;;26.87;45.60;100937.63;5054370;28;20064;-63
2023/07/30 08:03:12;;;;;;;7.55;2.92;;;;;;;27.02;45.66;100936.16;5036628;28;20338;-68
2023/07/30 08:05:38;;;;;;;4.45;1.08;;;;;;;27.24;45.10;100935.63;5054668;28;20036;-64
2023/07/30 08:08:03;;;;;;;5.38;1.10;;;;;;;27.59;43.59;100934.63;5053971;28;20021;-64
2023/07/30 08:10:29;;;;;;;7.70;1.30;;;;;;;27.91;44.25;100926.84;5053083;28;20423;-67
2023/07/30 08:12:54;;;;;;;9.70;2.22;;;;;;;28.02;44.10;100926.00;5054159;28;20017;-67
2023/07/30 08:15:20;;;;;;;4.97;1.27;;;;;;;28.22;43.50;100923.75;5052988;28;20032;-67
2023/07/30 08:17:46;;;;;;;4.75;1.02;;;;;;;28.61;43.34;100924.84;5036360;28;20091;-68
2023/07/30 08:20:12;;;;;;;5.28;1.30;;;;;;;28.74;42.48;100920.97;5053227;28;20040;-67
2023/07/30 08:22:37;;;;;;;5.10;1.15;;;;;;;28.96;42.58;100921.09;5019651;28;20033;-68
2023/07/30 08:25:03;;;;;;;6.38;1.25;;;;;;;29.17;42.53;100925.91;5036019;28;20075;-66
2023/07/30 08:27:29;;;;;;;8.52;1.55;;;;;;;29.26;42.76;100922.50;5052599;28;20025;-67
2023/07/30 08:29:54;;;;;;;9.25;1.52;;;;;;;29.44;41.93;100925.03;5036170;28;20039;-68
2023/07/30 08:32:19;;;;;;;4.90;1.20;;;;;;;29.48;42.24;100927.31;5052771;28;20052;-67
2023/07/30 08:34:45;;;;;;;8.73;1.85;;;;;;;29.38;42.39;100926.03;5052589;28;20032;-67
2023/07/30 08:37:10;;;;;;;7.72;1.40;;;;;;;29.46;41.90;100933.06;5052465;28;20362;-67
2023/07/30 08:39:36;;;;;;;8.98;1.15;;;;;;;30.02;40.93;100920.97;5052599;28;20059;-68
2023/07/30 08:42:01;;;;;;;4.63;1.05;;;;;;;30.36;40.64;100917.03;5052810;28;20116;-66
2023/07/30 08:44:26;;;;;;;3.97;1.10;;;;;;;30.37;40.48;100915.97;5019409;28;20082;-66
2023/07/30 08:46:52;;;;;;;6.25;1.17;;;;;;;30.86;39.95;100929.81;5052523;28;20492;-66
2023/07/30 08:49:17;;;;;;;8.73;1.92;;;;;;;30.85;40.27;100928.97;5035675;28;20463;-67
2023/07/30 08:51:43;;;;;;;3.78;1.10;;;;;;;31.04;39.71;100923.97;5019091;28;20029;-67
2023/07/30 08:54:09;;;;;;;4.63;1.10;;;;;;;30.92;39.71;100918.56;5035523;28;20489;-67
2023/07/30 08:56:35;;;;;;;5.32;1.17;;;;;;;31.27;38.52;100918.06;5035439;28;20029;-68
2023/07/30 08:59:01;;;;;;;12.10;1.45;;;;;;;31.11;38.98;100928.19;5052311;28;20431;-67
2023/07/30 09:01:33;;;;;;;6.85;1.63;;;;;;;30.87;39.37;100931.50;5052171;28;20067;-67
2023/07/30 09:04:02;;;;;;;8.75;1.85;;;;;;;30.67;39.11;100934.03;5051978;28;20033;-66
2023/07/30 09:06:27;;;;;;;3.22;0.85;;;;;;;30.42;39.24;100927.09;5053368;28;20041;-67
2023/07/30 09:08:53;;;;;;;7.45;1.15;;;;;;;30.63;38.73;100914.34;5051740;28;20439;-67
2023/07/30 09:11:18;;;;;;;5.72;1.08;;;;;;;30.49;38.73;100922.19;5045524;28;20033;-66
2023/07/30 09:13:43;;;;;;;6.68;1.75;;;;;;;30.16;39.05;100927.81;5051958;28;20029;-66
2023/07/30 09:16:11;;;;;;;6.70;1.20;;;;;;;29.98;39.15;100926.16;5051995;28;20116;-66
2023/07/30 09:18:44;;;;;;;4.97;0.75;;;;;;;29.91;38.97;100927.44;5051942;28;20029;-66
2023/07/30 09:21:11;;;;;;;5.75;0.85;;;;;;;29.79;39.00;100932.19;5051878;28;20029;-66
2023/07/30 09:23:45;;;;;;;5.00;1.02;;;;;;;29.94;38.32;100930.56;5051795;28;20539;-67
2023/07/30 09:26:11;;;;;;;6.63;1.00;;;;;;;30.60;37.92;100933.41;5051870;28;20033;-67
2023/07/30 09:28:37;;;;;;;5.85;1.00;;;;;;;30.57;37.99;100930.03;5035003;28;20036;-67
2023/07/30 09:31:07;;;;;;;3.00;0.82;;;;;;;30.26;38.46;100933.50;5051454;28;20123;-67
2023/07/30 09:33:33;;;;;;;4.55;0.90;;;;;;;30.25;38.04;100930.97;5035096;28;20082;-66
2023/07/30 09:36:03;;;;;;;8.35;1.58;;;;;;;29.99;38.49;100927.84;5051446;28;20111;-67
2023/07/30 09:38:30;;;;;;;12.25;2.00;;;;;;;29.86;38.52;100933.75;5035007;28;20059;-65
2023/07/30 09:41:05;;;;;;;4.38;1.02;;;;;;;30.25;37.50;100926.28;5051597;28;20030;-67
2023/07/30 09:43:34;;;;;;;9.18;1.67;;;;;;;30.33;37.78;100934.13;5051739;28;20032;-63
2023/07/30 09:46:04;;;;;;;3.65;1.20;;;;;;;30.47;37.75;100927.16;5052749;28;20049;-65
2023/07/30 09:48:31;;;;;;;3.90;1.20;;;;;;;30.72;37.77;100923.00;5034908;28;20033;-67
2023/07/30 09:50:59;;;;;;;3.90;1.02;;;;;;;30.68;37.66;100908.88;5034951;28;20385;-68
2023/07/30 09:53:24;;;;;;;4.88;1.25;;;;;;;30.60;37.76;100927.88;5051879;28;20501;-67
2023/07/30 09:55:50;;;;;;;3.55;1.38;;;;;;;30.44;37.20;100919.38;5034784;28;20041;-68
2023/07/30 09:58:16;;;;;;;4.32;1.08;;;;;;;30.16;38.17;100919.53;5035080;28;20033;-67
2023/07/30 10:00:43;;;;;;;4.63;1.38;;;;;;;29.84;38.00;100919.38;5018219;28;20049;-67
2023/07/30 10:03:09;;;;;;;6.65;1.15;;;;;;;29.58;38.13;100930.22;5034899;28;20037;-67
2023/07/30 10:05:36;;;;;;;6.78;1.35;;;;;;;29.29;38.79;100944.09;5051289;28;20399;-67
2023/07/30 10:08:09;;;;;;;4.72;1.23;;;;;;;29.07;38.80;100942.25;5020240;28;20033;-66
2023/07/30 10:10:35;;;;;;;5.80;1.02;;;;;;;28.96;38.73;100940.41;5055597;28;20025;-65
2023/07/30 10:13:05;;;;;;;4.03;1.38;;;;;;;29.06;39.19;100946.97;5038704;28;20039;-67
2023/07/30 10:15:34;;;;;;;7.80;1.35;;;;;;;29.13;38.68;100961.44;5038966;28;20029;-67
2023/07/30 10:17:59;;;;;;;4.40;1.27;;;;;;;29.14;39.09;100954.00;5055376;28;20504;-65
2023/07/30 10:20:26;;;;;;;8.07;0.77;;;;;;;29.16;38.63;100949.91;5055417;28;20044;-63
2023/07/30 10:22:53;;;;;;;3.25;0.70;;;;;;;29.10;38.94;100953.66;5038984;28;20029;-67
2023/07/30 10:25:22;;;;;;;3.17;0.88;;;;;;;28.93;39.27;100955.53;5054935;28;20030;-67
2023/07/30 10:27:51;;;;;;;11.45;0.93;;;;;;;28.78;38.41;100960.75;5055507;28;20120;-67
2023/07/30 10:30:19;;;;;;;5.03;1.45;;;;;;;28.68;39.50;100960.53;5039214;28;20029;-67
2023/07/30 10:32:59;;;;;;;6.90;1.25;;;;;;;28.70;38.64;100972.19;5055323;28;20036;-68
2023/07/30 10:35:43;;;;;;;8.25;1.13;;;;;;;28.71;38.91;100966.41;5055221;28;20029;-67
2023/07/30 10:38:16;;;;;;;5.63;1.13;;;;;;;28.68;38.97;100968.81;5055025;28;20045;-69
2023/07/30 10:40:41;;;;;;;3.10;0.60;;;;;;;28.55;38.49;100969.06;5022579;28;20029;-67
2023/07/30 10:43:17;;;;;;;5.50;1.00;;;;;;;28.43;38.97;100974.59;5038418;28;20055;-68
2023/07/30 10:45:50;;;;;;;4.78;1.00;;;;;;;28.35;38.83;100985.16;5055158;28;20041;-68
2023/07/30 10:48:16;;;;;;;2.20;0.60;;;;;;;28.33;39.60;100998.34;5038533;28;20033;-63
2023/07/30 10:50:42;;;;;;;4.47;1.08;;;;;;;28.24;39.57;101009.75;5038156;28;20504;-63
2023/07/30 10:53:10;;;;;;;3.83;0.70;;;;;;;28.19;39.08;101009.63;5054665;28;20037;-62
2023/07/30 10:55:36;;;;;;;4.75;0.77;;;;;;;28.09;39.49;101001.13;5038015;28;20025;-62
2023/07/30 10:58:03;;;;;;;3.20;0.70;;;;;;;28.05;39.40;101013.72;5055783;28;20124;-63
2023/07/30 11:00:28;;;;;;;2.85;1.17;;;;;;;27.96;39.87;101015.09;5021419;28;20095;-62
2023/07/30 11:02:54;;;;;;;5.15;0.90;;;;;;;27.82;40.15;101018.31;5037894;28;20029;-62
2023/07/30 11:05:19;;;;;;;4.13;0.63;;;;;;;27.65;39.52;101031.94;5054695;28;20037;-62
2023/07/30 11:07:52;;;;;;;3.28;0.50;;;;;;;27.49;39.62;101046.38;5054262;28;20095;-63
2023/07/30 11:10:17;;;;;;;2.13;0.32;;;;;;;27.34;39.74;101055.03;5054270;28;20068;-62
2023/07/30 11:12:43;;;;;;;1.73;0.50;;;;;;;27.23;39.80;101069.56;5054235;28;20060;-64
2023/07/30 11:15:09;;;;;;;3.72;1.08;;;;;;;27.16;40.17;101061.41;5055670;28;20057;-63
2023/07/30 11:17:35;;;;;;;2.38;0.75;;;;;;;27.31;40.40;101046.41;5053866;28;20037;-62
2023/07/30 11:20:00;;;;;;;1.52;0.52;;;;;;;27.99;40.14;101055.94;5038211;28;20043;-63